Semora, North Carolina
Current Conditions -  °F | °C
As of 3:53 PM on Friday 24 Oct 2014 (Local Time) from KDAN Reporting Station
Clear Clear  
Wind Chill: 69°   Ceiling: Unl
Heat Index: 69°   Visibility: 10mi
Dew Point: 42°   Wind: 5mph
Humidity: 38%   Direction: 230°SW
Pressure: 29.97"   Gusts: NA
Location:  36.5°N, 79.15°W
Report Text: KDAN 241953Z AUTO 23004KT 10SM CLR 21/06 A2997 RMK AO2 SLP140 T02060056
Loading
Personal Weather Stations






























Interactive Weather Map
Tropical Storm Tracking
New forecast layout! Learn more

10-Day Weather Forecast

Advertisements
Track Severe Weather on mobile